createdAt,value
2022-10-05T00:03:39.109Z,23.02
2022-10-05T00:06:11.254Z,32.33
2022-10-05T00:08:39.260Z,25.17
2022-10-05T00:11:08.343Z,29.00
2022-10-05T00:13:36.058Z,26.42
2022-10-05T00:16:16.240Z,27.65
2022-10-05T00:18:49.502Z,27.48
2022-10-05T00:21:29.057Z,27.33
2022-10-05T00:23:58.205Z,28.27
2022-10-05T00:26:32.937Z,32.55
2022-10-05T00:29:02.534Z,24.48
2022-10-05T00:31:35.851Z,26.38
2022-10-05T00:34:03.702Z,21.88
2022-10-05T00:36:31.469Z,25.15
2022-10-05T00:39:02.001Z,27.92
2022-10-05T00:41:40.600Z,25.73
2022-10-05T00:44:29.758Z,24.95
2022-10-05T00:47:32.142Z,23.35
2022-10-05T00:50:21.149Z,25.02
2022-10-05T00:53:00.137Z,23.73
2022-10-05T00:55:43.332Z,23.63
2022-10-05T00:58:11.058Z,26.83
2022-10-05T01:01:05.235Z,22.73
2022-10-05T01:04:11.126Z,27.48
2022-10-05T01:06:54.160Z,24.33
2022-10-05T01:09:41.034Z,28.10
2022-10-05T01:12:41.507Z,24.52
2022-10-05T01:15:15.056Z,28.33
2022-10-05T01:18:00.884Z,23.38
2022-10-05T01:20:44.487Z,21.20
2022-10-05T01:23:22.033Z,18.45
2022-10-05T01:26:37.053Z,21.92
2022-10-05T01:31:32.907Z,19.88
2022-10-05T01:34:22.731Z,23.88
2022-10-05T01:37:12.547Z,22.40
2022-10-05T01:39:50.409Z,21.83
2022-10-05T01:42:33.685Z,25.95
2022-10-05T01:45:17.533Z,18.98
2022-10-05T01:47:54.388Z,21.75
2022-10-05T01:51:04.675Z,25.35
2022-10-05T01:53:50.781Z,22.48
2022-10-05T01:56:33.516Z,25.95
2022-10-05T01:59:31.064Z,19.77
2022-10-05T02:02:04.170Z,22.33
2022-10-05T02:05:02.057Z,26.02
2022-10-05T02:07:33.602Z,22.92
2022-10-05T02:10:26.109Z,19.67
2022-10-05T02:13:09.906Z,23.45
2022-10-05T02:15:47.383Z,23.08
2022-10-05T02:18:29.050Z,25.08
2022-10-05T02:20:58.538Z,23.63
2022-10-05T02:23:33.409Z,19.45
2022-10-05T02:26:02.257Z,21.95
2022-10-05T02:28:44.160Z,20.30
2022-10-05T02:31:17.994Z,20.35
2022-10-05T02:33:48.322Z,21.35
2022-10-05T02:36:26.313Z,21.85
2022-10-05T02:39:36.977Z,18.95
2022-10-05T02:42:30.181Z,23.75
2022-10-05T02:45:49.702Z,27.02
2022-10-05T02:48:41.085Z,19.98
2022-10-05T02:51:17.813Z,23.35
2022-10-05T02:54:15.051Z,21.48
2022-10-05T02:57:13.252Z,16.88
2022-10-05T02:59:56.260Z,24.30
2022-10-05T03:02:26.545Z,22.80
2022-10-05T03:05:12.887Z,24.02
2022-10-05T03:07:48.427Z,26.10
2022-10-05T03:10:29.975Z,22.35
2022-10-05T03:13:07.006Z,20.10
2022-10-05T03:15:35.441Z,28.52
2022-10-05T03:18:09.904Z,23.83
2022-10-05T03:21:03.995Z,22.02
2022-10-05T03:23:53.695Z,25.00
2022-10-05T03:27:01.120Z,27.98
2022-10-05T03:29:41.433Z,23.65
2022-10-05T03:32:19.795Z,32.60
2022-10-05T03:34:59.507Z,27.95
2022-10-05T03:37:44.758Z,22.52
2022-10-05T03:40:24.221Z,23.95
2022-10-05T03:43:16.756Z,26.35
2022-10-05T03:45:47.800Z,28.88
2022-10-05T03:48:25.493Z,21.75
2022-10-05T03:51:21.049Z,21.65
2022-10-05T03:53:57.476Z,22.83
2022-10-05T03:56:50.827Z,29.48
2022-10-05T03:59:39.181Z,34.67
2022-10-05T04:02:31.494Z,26.45
2022-10-05T04:05:14.211Z,31.60
2022-10-05T04:07:46.731Z,32.20
2022-10-05T04:10:47.256Z,30.00
2022-10-05T04:13:38.330Z,26.38
2022-10-05T04:16:20.017Z,32.63
2022-10-05T04:18:57.423Z,26.77
2022-10-05T04:21:40.033Z,27.50
2022-10-05T04:24:35.630Z,24.35
2022-10-05T04:27:16.519Z,24.08
2022-10-05T04:30:16.765Z,23.20
2022-10-05T04:32:57.213Z,29.25
2022-10-05T04:36:03.553Z,31.48
2022-10-05T04:38:56.150Z,29.70
2022-10-05T04:41:47.627Z,27.70
2022-10-05T04:44:44.349Z,29.00
2022-10-05T04:47:39.953Z,30.90
2022-10-05T04:50:44.552Z,26.15
2022-10-05T04:53:31.048Z,28.80
2022-10-05T04:56:15.426Z,31.17
2022-10-05T04:59:13.519Z,28.55
2022-10-05T05:02:18.698Z,28.10
2022-10-05T05:05:08.106Z,28.67
2022-10-05T05:07:39.693Z,30.00
2022-10-05T05:10:19.788Z,31.17
2022-10-05T05:13:26.444Z,28.20
2022-10-05T05:16:21.575Z,29.73
2022-10-05T05:19:08.507Z,29.63
2022-10-05T05:21:44.958Z,30.20
2022-10-05T05:24:33.878Z,35.88
2022-10-05T05:27:01.917Z,29.98
2022-10-05T05:29:35.082Z,29.50
2022-10-05T05:32:09.097Z,31.75
2022-10-05T05:35:19.085Z,30.52
2022-10-05T05:38:00.967Z,29.92
2022-10-05T05:40:35.422Z,31.73
2022-10-05T05:43:32.376Z,27.50
2022-10-05T05:46:08.262Z,28.98
2022-10-05T05:48:42.276Z,29.33
2022-10-05T05:51:21.431Z,27.70
2022-10-05T05:53:59.390Z,27.55
2022-10-05T05:56:38.245Z,22.83
2022-10-05T05:59:22.544Z,23.60
2022-10-05T06:05:06.533Z,22.55
2022-10-05T06:07:38.065Z,28.33
2022-10-05T06:10:29.416Z,23.15
2022-10-05T06:13:14.714Z,28.83
2022-10-05T06:16:09.161Z,24.65
2022-10-05T06:18:41.890Z,22.88
2022-10-05T06:21:35.937Z,24.70
2022-10-05T06:24:55.324Z,25.83
2022-10-05T06:27:57.785Z,19.05
2022-10-05T06:30:33.530Z,24.45
2022-10-05T06:33:16.147Z,25.00
2022-10-05T06:36:15.082Z,22.30
2022-10-05T06:38:51.909Z,19.38
2022-10-05T06:41:59.901Z,21.95
2022-10-05T06:44:47.537Z,22.13
2022-10-05T06:48:11.535Z,19.83
2022-10-05T06:51:15.416Z,19.40
2022-10-05T06:54:31.762Z,20.63
2022-10-05T06:57:14.293Z,21.92
2022-10-05T07:00:02.401Z,19.15
2022-10-05T07:02:54.478Z,20.52
2022-10-05T07:05:46.357Z,20.23
2022-10-05T07:08:24.368Z,18.50
2022-10-05T07:11:06.785Z,19.10
2022-10-05T07:14:00.904Z,18.40
2022-10-05T07:17:16.751Z,18.70
2022-10-05T07:20:06.937Z,18.90
2022-10-05T07:23:14.922Z,15.40
2022-10-05T07:26:08.957Z,16.67
2022-10-05T07:29:14.715Z,18.52
2022-10-05T07:31:48.562Z,18.25
2022-10-05T07:34:47.993Z,14.50
2022-10-05T07:37:49.209Z,13.73
2022-10-05T07:40:41.716Z,17.00
2022-10-05T07:43:21.946Z,14.10
2022-10-05T07:46:08.487Z,13.00
2022-10-05T07:48:55.085Z,12.50
2022-10-05T07:51:25.658Z,17.50
2022-10-05T07:54:56.323Z,12.55
2022-10-05T07:57:46.085Z,18.25
2022-10-05T08:00:43.183Z,16.25
2022-10-05T08:03:20.532Z,14.00
2022-10-05T08:05:48.432Z,12.55
2022-10-05T08:08:53.810Z,11.05
2022-10-05T08:11:58.185Z,14.52
2022-10-05T08:14:43.103Z,14.43
2022-10-05T08:17:28.971Z,13.60
2022-10-05T08:20:09.905Z,16.20
2022-10-05T08:22:47.161Z,9.45
2022-10-05T08:25:26.997Z,11.48
2022-10-05T08:28:22.454Z,11.50
2022-10-05T08:31:03.920Z,12.43
2022-10-05T08:33:44.352Z,12.43
2022-10-05T08:36:15.856Z,11.38
2022-10-05T08:38:44.499Z,9.98
2022-10-05T08:41:53.800Z,10.48
2022-10-05T08:44:59.116Z,9.80
2022-10-05T08:47:35.056Z,11.48
2022-10-05T08:50:08.526Z,14.50
2022-10-05T08:53:07.894Z,7.97
2022-10-05T08:56:06.522Z,9.90
2022-10-05T08:58:49.376Z,10.20
2022-10-05T09:01:41.326Z,8.43
2022-10-05T09:04:38.423Z,10.00
2022-10-05T09:07:09.936Z,8.93
2022-10-05T09:10:00.875Z,10.52
2022-10-05T09:12:42.997Z,8.85
2022-10-05T09:15:48.427Z,8.90
2022-10-05T09:18:54.763Z,13.20
2022-10-05T09:21:50.200Z,9.18
2022-10-05T09:24:33.363Z,10.05
2022-10-05T09:27:25.988Z,10.75
2022-10-05T09:30:15.740Z,9.68
2022-10-05T09:33:25.929Z,8.85
2022-10-05T09:36:24.928Z,10.80
2022-10-05T09:39:11.325Z,8.80
2022-10-05T09:41:45.229Z,10.48
2022-10-05T09:44:19.113Z,10.20
2022-10-05T09:46:53.636Z,13.38
2022-10-05T09:49:59.854Z,12.18
2022-10-05T09:52:53.573Z,8.82
2022-10-05T09:55:33.506Z,8.50
2022-10-05T09:58:24.830Z,9.18
2022-10-05T10:01:34.620Z,9.73
2022-10-05T10:04:10.178Z,9.85
2022-10-05T10:07:13.303Z,8.15
2022-10-05T10:10:08.172Z,5.53
2022-10-05T10:12:41.644Z,9.85
2022-10-05T10:15:38.447Z,8.73
2022-10-05T10:18:25.277Z,10.68
2022-10-05T10:21:30.155Z,7.55
2022-10-05T10:27:02.833Z,9.98
2022-10-05T10:29:40.130Z,7.45
2022-10-05T10:32:13.839Z,9.10
2022-10-05T10:34:41.769Z,15.23
2022-10-05T10:37:35.473Z,7.45
2022-10-05T10:40:27.008Z,8.95
2022-10-05T10:43:13.832Z,11.40
2022-10-05T10:46:07.364Z,11.25
2022-10-05T10:48:50.092Z,6.18
2022-10-05T10:51:49.383Z,8.38
2022-10-05T10:54:48.856Z,9.23
2022-10-05T10:57:48.659Z,7.32
2022-10-05T11:00:54.976Z,8.57
2022-10-05T11:03:53.376Z,6.85
2022-10-05T11:06:33.087Z,8.60
2022-10-05T11:09:34.239Z,8.95
2022-10-05T11:12:43.134Z,7.47
2022-10-05T11:15:13.643Z,9.75
2022-10-05T11:18:00.666Z,9.85
2022-10-05T11:20:49.742Z,10.27
2022-10-05T11:23:54.095Z,10.80
2022-10-05T11:27:03.559Z,11.45
2022-10-05T11:30:06.015Z,7.22
2022-10-05T11:32:41.790Z,9.32
2022-10-05T11:35:34.426Z,8.85
2022-10-05T11:38:05.033Z,8.05
2022-10-05T11:41:17.767Z,12.15
2022-10-05T11:44:07.772Z,10.38
2022-10-05T11:46:52.474Z,10.63
2022-10-05T11:49:26.439Z,9.57
2022-10-05T11:52:16.915Z,12.43
2022-10-05T11:55:15.449Z,8.05
2022-10-05T11:57:50.337Z,11.77
2022-10-05T12:00:19.898Z,8.68
2022-10-05T12:03:12.400Z,10.45
2022-10-05T12:06:01.795Z,9.23
2022-10-05T12:08:38.739Z,8.20
2022-10-05T12:11:36.843Z,8.50
2022-10-05T12:14:24.257Z,9.73
2022-10-05T12:17:02.749Z,8.40
2022-10-05T12:19:45.757Z,8.07
2022-10-05T12:22:23.009Z,12.45
2022-10-05T12:25:19.379Z,9.80
2022-10-05T12:27:51.512Z,7.43
2022-10-05T12:30:25.863Z,6.70
2022-10-05T12:33:02.487Z,7.97
2022-10-05T12:35:48.999Z,9.75
2022-10-05T12:38:28.503Z,8.48
2022-10-05T12:41:36.683Z,6.22
2022-10-05T12:44:13.446Z,7.53
2022-10-05T12:46:50.183Z,8.15
2022-10-05T12:49:39.278Z,6.35
2022-10-05T12:52:19.278Z,8.18
2022-10-05T12:54:55.449Z,8.30
2022-10-05T12:57:34.779Z,10.95
2022-10-05T13:00:23.164Z,9.77
2022-10-05T13:03:10.789Z,8.55
2022-10-05T13:06:02.790Z,8.82
2022-10-05T13:08:39.539Z,7.60
2022-10-05T13:11:32.752Z,7.60
2022-10-05T13:14:35.385Z,10.40
2022-10-05T13:17:30.015Z,10.00
2022-10-05T13:20:16.493Z,9.75
2022-10-05T13:22:50.377Z,15.43
2022-10-05T13:25:37.574Z,8.60
2022-10-05T13:28:23.236Z,9.88
2022-10-05T13:31:13.215Z,15.75
2022-10-05T13:34:02.696Z,8.20
2022-10-05T13:36:49.337Z,14.13
2022-10-05T13:39:36.160Z,12.02
2022-10-05T13:42:32.836Z,14.57
2022-10-05T13:45:14.476Z,10.52
2022-10-05T13:47:55.013Z,9.35
2022-10-05T13:50:34.630Z,12.20
2022-10-05T13:53:35.683Z,9.75
2022-10-05T13:56:11.703Z,9.57
2022-10-05T13:58:50.975Z,11.70
2022-10-05T14:01:41.815Z,9.52
2022-10-05T14:04:42.107Z,10.65
2022-10-05T14:07:49.245Z,11.10
2022-10-05T14:10:37.490Z,9.60
2022-10-05T14:13:23.718Z,8.13
2022-10-05T14:16:20.215Z,10.68
2022-10-05T14:18:58.399Z,8.88
2022-10-05T14:21:31.803Z,9.70
2022-10-05T14:24:45.881Z,9.10
2022-10-05T14:27:33.390Z,11.93
2022-10-05T14:30:25.736Z,8.40
2022-10-05T14:33:04.349Z,9.48
2022-10-05T14:35:54.966Z,8.85
2022-10-05T14:38:29.453Z,11.65
2022-10-05T14:41:20.630Z,8.93
2022-10-05T14:44:02.151Z,9.18
2022-10-05T14:46:32.772Z,7.82
2022-10-05T14:49:21.563Z,9.45
2022-10-05T14:51:51.592Z,11.23
2022-10-05T14:55:00.948Z,8.35
2022-10-05T14:57:44.962Z,13.68
2022-10-05T15:00:16.617Z,11.75
2022-10-05T15:02:45.221Z,10.40
2022-10-05T15:05:24.846Z,7.97
2022-10-05T15:07:57.293Z,11.43
2022-10-05T15:10:40.668Z,11.45
2022-10-05T15:13:29.936Z,9.93
2022-10-05T15:15:59.954Z,11.15
2022-10-05T15:18:32.193Z,10.35
2022-10-05T15:21:21.652Z,9.30
2022-10-05T15:24:09.402Z,14.13
2022-10-05T15:27:00.393Z,11.32
2022-10-05T15:30:04.736Z,11.18
2022-10-05T15:32:44.350Z,13.93
2022-10-05T15:35:38.528Z,10.98
2022-10-05T15:38:20.751Z,11.35
2022-10-05T15:41:09.165Z,10.15
2022-10-05T15:44:08.408Z,7.82
2022-10-05T15:46:56.442Z,11.85
2022-10-05T15:49:57.247Z,13.05
2022-10-05T15:52:40.756Z,9.40
2022-10-05T15:55:29.816Z,14.30
2022-10-05T15:58:31.312Z,11.40
2022-10-05T16:01:08.006Z,9.68
2022-10-05T16:03:44.580Z,17.25
2022-10-05T16:06:48.907Z,13.70
2022-10-05T16:09:29.111Z,11.93
2022-10-05T16:12:09.821Z,15.88
2022-10-05T16:14:49.688Z,10.85
2022-10-05T16:17:28.362Z,14.25
2022-10-05T16:20:21.260Z,10.38
2022-10-05T16:23:02.693Z,10.70
2022-10-05T16:25:30.502Z,12.85
2022-10-05T16:28:30.498Z,10.57
2022-10-05T16:31:26.666Z,14.88
2022-10-05T16:34:06.412Z,12.82
2022-10-05T16:36:40.406Z,14.57
2022-10-05T16:39:19.109Z,12.05
2022-10-05T16:42:14.007Z,16.73
2022-10-05T16:47:49.492Z,14.55
2022-10-05T16:50:54.277Z,14.48
2022-10-05T16:56:01.234Z,19.42
2022-10-05T16:58:56.707Z,17.63
2022-10-05T17:01:42.590Z,14.48
2022-10-05T17:04:28.349Z,17.30
2022-10-05T17:07:35.860Z,14.85
2022-10-05T17:10:35.862Z,19.90
2022-10-05T17:13:31.560Z,16.63
2022-10-05T17:16:26.940Z,15.30
2022-10-05T17:19:24.350Z,13.55
2022-10-05T17:22:00.745Z,15.30
2022-10-05T17:24:28.488Z,17.33
2022-10-05T17:27:24.921Z,16.23
2022-10-05T17:29:55.287Z,19.80
2022-10-05T17:32:23.197Z,16.95
2022-10-05T17:35:18.219Z,14.15
2022-10-05T17:38:23.147Z,14.55
2022-10-05T17:41:12.483Z,19.98
2022-10-05T17:43:40.989Z,13.00
2022-10-05T17:46:12.404Z,17.67
2022-10-05T17:48:54.538Z,15.48
2022-10-05T17:51:46.852Z,17.90
2022-10-05T17:55:08.274Z,15.93
2022-10-05T17:57:37.227Z,14.85
2022-10-05T18:00:14.482Z,17.63
2022-10-05T18:02:43.593Z,14.90
2022-10-05T18:05:12.470Z,17.73
2022-10-05T18:07:50.917Z,19.33
2022-10-05T18:10:29.707Z,15.73
2022-10-05T18:13:00.398Z,15.32
2022-10-05T18:15:28.363Z,14.85
2022-10-05T18:18:32.108Z,15.68
2022-10-05T18:21:32.224Z,18.33
2022-10-05T18:23:59.834Z,21.05
2022-10-05T18:26:52.033Z,19.67
2022-10-05T18:29:56.400Z,15.55
2022-10-05T18:32:46.312Z,15.85
2022-10-05T18:35:23.460Z,17.25
2022-10-05T18:38:17.239Z,21.13
2022-10-05T18:40:54.026Z,17.67
2022-10-05T18:43:47.089Z,15.63
2022-10-05T18:46:30.397Z,19.42
2022-10-05T18:49:10.996Z,14.05
2022-10-05T18:52:19.363Z,21.30
2022-10-05T18:55:19.055Z,19.67
2022-10-05T18:58:15.674Z,20.65
2022-10-05T19:01:09.896Z,16.48
2022-10-05T19:03:43.395Z,18.40
2022-10-05T19:06:17.246Z,15.00
2022-10-05T19:08:51.375Z,15.90
2022-10-05T19:11:43.130Z,13.68
2022-10-05T19:14:31.974Z,13.07
2022-10-05T19:17:20.075Z,20.38
2022-10-05T19:20:18.102Z,16.48
2022-10-05T19:23:12.147Z,16.52
2022-10-05T19:26:14.142Z,17.10
2022-10-05T19:28:47.229Z,15.55
2022-10-05T19:31:33.036Z,15.45
2022-10-05T19:34:16.435Z,15.30
2022-10-05T19:37:08.633Z,17.73
2022-10-05T19:40:07.221Z,18.45
2022-10-05T19:42:58.058Z,17.83
2022-10-05T19:45:29.402Z,17.85
2022-10-05T19:48:17.799Z,20.83
2022-10-05T19:51:12.261Z,19.80
2022-10-05T19:53:46.878Z,23.65
2022-10-05T19:56:20.278Z,19.88
2022-10-05T19:58:50.155Z,19.50
2022-10-05T20:01:30.880Z,26.00
2022-10-05T20:03:58.724Z,27.40
2022-10-05T20:06:35.546Z,24.83
2022-10-05T20:09:21.210Z,26.48
2022-10-05T20:11:56.567Z,25.77
2022-10-05T20:14:33.778Z,21.55
2022-10-05T20:17:48.423Z,24.58
2022-10-05T20:20:34.746Z,24.50
2022-10-05T20:23:22.403Z,26.75
2022-10-05T20:26:09.849Z,24.70
2022-10-05T20:28:38.204Z,25.63
2022-10-05T20:31:08.951Z,23.67
2022-10-05T20:33:36.951Z,25.20
2022-10-05T20:36:05.280Z,29.48
2022-10-05T20:38:40.059Z,25.02
2022-10-05T20:41:09.060Z,23.00
2022-10-05T20:43:39.065Z,24.77
2022-10-05T20:46:07.614Z,26.65
2022-10-05T20:48:45.825Z,24.08
2022-10-05T20:51:14.587Z,24.63
2022-10-05T20:53:42.299Z,25.38
2022-10-05T20:56:10.279Z,24.23
2022-10-05T20:58:38.041Z,23.65
2022-10-05T21:01:23.379Z,27.48
2022-10-05T21:03:51.304Z,23.48
2022-10-05T21:06:21.040Z,26.30
2022-10-05T21:08:51.410Z,27.33
2022-10-05T21:11:19.410Z,22.52
2022-10-05T21:13:47.274Z,20.95
2022-10-05T21:16:17.332Z,22.90
2022-10-05T21:18:48.709Z,26.83
2022-10-05T21:21:19.482Z,23.42
2022-10-05T21:23:48.835Z,22.73
2022-10-05T21:26:16.551Z,26.13
2022-10-05T21:28:44.329Z,96.00
2022-10-05T21:31:12.706Z,21.80
2022-10-05T21:33:40.584Z,21.90
2022-10-05T21:36:08.319Z,20.83
2022-10-05T21:38:36.578Z,24.17
2022-10-05T21:41:04.321Z,24.58
2022-10-05T21:43:32.012Z,28.48
2022-10-05T21:46:01.395Z,25.38
2022-10-05T21:48:31.515Z,19.45
2022-10-05T21:51:01.194Z,23.40
2022-10-05T21:53:33.886Z,26.45
2022-10-05T21:56:08.071Z,24.88
2022-10-05T22:01:04.044Z,24.30
2022-10-05T22:03:31.987Z,21.75
2022-10-05T22:05:59.862Z,22.35
2022-10-05T22:08:30.225Z,19.60
2022-10-05T22:11:08.926Z,20.73
2022-10-05T22:13:49.540Z,22.55
2022-10-05T22:16:19.708Z,27.27
2022-10-05T22:18:48.827Z,24.58
2022-10-05T22:21:17.067Z,26.48
2022-10-05T22:23:46.918Z,22.88
2022-10-05T22:26:19.441Z,22.85
2022-10-05T22:28:48.079Z,26.80
2022-10-05T22:31:17.901Z,22.60
2022-10-05T22:33:47.997Z,19.80
2022-10-05T22:36:16.227Z,24.90
2022-10-05T22:38:46.514Z,23.55
2022-10-05T22:41:16.484Z,22.30
2022-10-05T22:43:44.445Z,23.80
2022-10-05T22:46:13.535Z,24.52
2022-10-05T22:48:43.624Z,22.67
2022-10-05T22:51:12.503Z,21.85
2022-10-05T22:53:40.669Z,24.52
2022-10-05T22:56:11.061Z,21.60
2022-10-05T22:58:39.941Z,22.25
2022-10-05T23:01:10.614Z,24.23
2022-10-05T23:03:38.426Z,23.73
2022-10-05T23:06:10.709Z,24.88
2022-10-05T23:08:39.705Z,21.27
2022-10-05T23:11:13.097Z,22.83
2022-10-05T23:13:43.227Z,25.60
2022-10-05T23:16:17.272Z,24.27
2022-10-05T23:18:47.227Z,32.13
2022-10-05T23:21:15.489Z,22.98
2022-10-05T23:23:49.003Z,22.52
2022-10-05T23:26:18.526Z,25.70
2022-10-05T23:28:47.364Z,29.20
2022-10-05T23:31:17.835Z,24.02
2022-10-05T23:33:45.914Z,26.92
2022-10-05T23:36:18.147Z,23.45
2022-10-05T23:38:46.165Z,31.42
2022-10-05T23:41:14.748Z,27.65
2022-10-05T23:43:42.843Z,25.25
2022-10-05T23:46:11.492Z,25.35
2022-10-05T23:48:40.608Z,25.20
2022-10-05T23:51:10.481Z,26.10
2022-10-05T23:53:38.528Z,24.50
2022-10-05T23:56:06.995Z,24.35
2022-10-05T23:58:34.718Z,23.17
